Time;durP1;ratioP1;P1;durP2;ratioP2;P2;SDS_P1;SDS_P2;PMS_P1;PMS_P2;Temp;Humidity;BMP_temperature;BMP_pressure;BME280_temperature;BME280_humidity;BME280_pressure;Samples;Min_cycle;Max_cycle;Signal;HPM_P1;HPM_P2
2022/07/22 00:01:25;;;;;;;12.05;6.40;;;;;;;;;;7670902;23;20047;-63
2022/07/22 00:04:26;;;;;;;11.43;6.20;;;;;;;;;;7672181;23;20096;-62
2022/07/22 00:07:26;;;;;;;10.27;6.40;;;;;;;;;;7671812;23;20033;-61
2022/07/22 00:10:27;;;;;;;10.60;6.33;;;;;;;;;;7671491;23;20420;-61
2022/07/22 00:13:27;;;;;;;11.77;6.43;;;;;;;;;;7672324;23;20017;-61
2022/07/22 00:16:28;;;;;;;8.67;5.93;;;;;;;;;;7670531;23;20051;-61
2022/07/22 00:19:29;;;;;;;9.10;6.17;;;;;;;;;;7670607;23;20445;-61
2022/07/22 00:22:29;;;;;;;12.87;5.93;;;;;;;;;;7671164;23;20247;-62
2022/07/22 00:25:30;;;;;;;13.87;5.80;;;;;;;;;;7672272;23;20021;-70
2022/07/22 00:28:30;;;;;;;13.37;6.07;;;;;;;;;;7670410;23;20044;-61
2022/07/22 00:31:31;;;;;;;11.07;5.70;;;;;;;;;;7671987;23;20037;-62
2022/07/22 00:34:32;;;;;;;10.80;5.80;;;;;;;;;;7683395;23;20048;-61
2022/07/22 00:37:32;;;;;;;13.83;5.97;;;;;;;;;;7665972;23;20381;-61
2022/07/22 00:40:33;;;;;;;10.87;6.40;;;;;;;;;;7668063;23;20096;-61
2022/07/22 00:43:59;;;;;;;9.63;5.87;;;;;;;;;;7667365;23;20024;-61
2022/07/22 00:47:00;;;;;;;9.65;5.65;;;;;;;;;;7665638;23;20021;-61
2022/07/22 00:50:02;;;;;;;11.45;5.90;;;;;;;;;;7666108;23;20048;-61
2022/07/22 00:53:02;;;;;;;9.43;5.82;;;;;;;;;;7664680;23;20021;-61
2022/07/22 00:56:04;;;;;;;10.73;6.00;;;;;;;;;;7668637;23;20397;-61
2022/07/22 00:59:07;;;;;;;11.43;6.20;;;;;;;;;;7664456;23;20028;-61
2022/07/22 01:02:09;;;;;;;10.13;6.28;;;;;;;;;;7666037;23;20051;-66
2022/07/22 01:05:10;;;;;;;8.73;5.95;;;;;;;;;;7667889;23;20064;-61
2022/07/22 01:08:11;;;;;;;10.77;6.40;;;;;;;;;;7665867;23;20049;-66
2022/07/22 01:11:18;;;;;;;9.40;5.80;;;;;;;;;;7664054;23;20048;-61
2022/07/22 01:14:19;;;;;;;9.85;5.95;;;;;;;;;;7666675;23;20314;-61
2022/07/22 01:17:20;;;;;;;11.00;6.03;;;;;;;;;;7666669;23;20052;-63
2022/07/22 01:20:21;;;;;;;;;;;;;;;;;;7667800;23;20051;-68
2022/07/22 01:23:22;;;;;;;12.18;6.20;;;;;;;;;;7667576;23;20003;-62
2022/07/22 01:26:23;;;;;;;11.55;7.00;;;;;;;;;;7672091;23;20036;-63
2022/07/22 01:29:23;;;;;;;9.23;6.10;;;;;;;;;;7670870;23;20017;-63
2022/07/22 01:32:24;;;;;;;10.07;6.17;;;;;;;;;;7671517;23;20247;-61
2022/07/22 01:35:25;;;;;;;14.47;6.97;;;;;;;;;;7682733;23;20040;-63
2022/07/22 01:38:25;;;;;;;12.30;6.90;;;;;;;;;;7672571;23;20025;-61
2022/07/22 01:41:26;;;;;;;10.00;6.13;;;;;;;;;;7669470;23;20044;-65
2022/07/22 01:44:27;;;;;;;14.33;6.63;;;;;;;;;;7672192;23;20040;-61
2022/07/22 01:47:27;;;;;;;10.63;6.63;;;;;;;;;;7672491;23;20563;-63
2022/07/22 01:50:29;;;;;;;9.77;6.73;;;;;;;;;;7670498;23;20047;-61
2022/07/22 01:53:29;;;;;;;11.07;6.25;;;;;;;;;;7671498;23;20075;-61
2022/07/22 01:56:30;;;;;;;12.33;6.43;;;;;;;;;;7667493;23;20018;-70
2022/07/22 01:59:31;;;;;;;13.03;6.60;;;;;;;;;;7667515;23;20088;-62
2022/07/22 02:02:31;;;;;;;11.27;6.50;;;;;;;;;;7664260;23;20016;-69
2022/07/22 02:05:33;;;;;;;12.83;6.60;;;;;;;;;;7663541;23;20107;-61
2022/07/22 02:08:34;;;;;;;11.32;6.60;;;;;;;;;;7665925;23;20040;-61
2022/07/22 02:11:34;;;;;;;11.23;6.80;;;;;;;;;;7666067;23;20017;-61
2022/07/22 02:14:35;;;;;;;9.73;6.30;;;;;;;;;;7677667;23;20077;-61
2022/07/22 02:17:36;;;;;;;12.10;6.40;;;;;;;;;;7667707;23;20112;-61
2022/07/22 02:20:36;;;;;;;11.75;6.15;;;;;;;;;;7638923;23;20095;-69
2022/07/22 02:23:37;;;;;;;15.80;6.90;;;;;;;;;;7666365;23;20100;-61
2022/07/22 02:26:38;;;;;;;10.97;7.20;;;;;;;;;;7675350;23;20027;-69
2022/07/22 02:29:38;;;;;;;15.50;7.60;;;;;;;;;;7668684;23;20148;-62
2022/07/22 02:32:39;;;;;;;12.10;6.70;;;;;;;;;;7667983;23;20091;-72
2022/07/22 02:35:40;;;;;;;11.97;6.60;;;;;;;;;;7667386;23;20808;-61
2022/07/22 02:38:41;;;;;;;13.13;6.50;;;;;;;;;;7666634;23;20039;-75
2022/07/22 02:41:41;;;;;;;9.17;6.37;;;;;;;;;;7668075;23;20420;-61
2022/07/22 02:44:42;;;;;;;13.83;7.30;;;;;;;;;;7669359;23;20024;-67
2022/07/22 02:47:53;;;;;;;12.70;7.30;;;;;;;;;;7670067;23;20048;-61
2022/07/22 02:50:54;;;;;;;10.95;6.72;;;;;;;;;;7666367;23;20051;-61
2022/07/22 02:53:54;;;;;;;13.87;7.27;;;;;;;;;;7668002;23;20021;-61
2022/07/22 02:56:55;;;;;;;14.57;7.30;;;;;;;;;;7667848;23;20020;-65
2022/07/22 02:59:56;;;;;;;18.07;8.10;;;;;;;;;;7666271;23;20096;-63
2022/07/22 03:02:56;;;;;;;14.77;8.17;;;;;;;;;;7640300;23;20095;-66
2022/07/22 03:05:57;;;;;;;13.93;7.90;;;;;;;;;;7667739;23;20396;-62
2022/07/22 03:08:58;;;;;;;16.27;7.70;;;;;;;;;;7666553;23;20021;-66
2022/07/22 03:11:58;;;;;;;15.63;8.17;;;;;;;;;;7663630;23;20512;-61
2022/07/22 03:14:59;;;;;;;13.20;8.20;;;;;;;;;;7668891;23;20043;-61
2022/07/22 03:18:00;;;;;;;13.73;7.93;;;;;;;;;;7667833;23;20092;-61
2022/07/22 03:21:01;;;;;;;17.50;8.50;;;;;;;;;;7677172;23;20036;-61
2022/07/22 03:24:01;;;;;;;13.33;8.03;;;;;;;;;;7663858;23;20017;-62
2022/07/22 03:27:02;;;;;;;14.43;8.00;;;;;;;;;;7667313;23;20024;-61
2022/07/22 03:30:06;;;;;;;12.50;7.70;;;;;;;;;;7667188;23;20422;-66
2022/07/22 03:33:07;;;;;;;13.70;7.97;;;;;;;;;;7667493;23;20017;-69
2022/07/22 03:36:07;;;;;;;12.90;8.17;;;;;;;;;;7665068;23;20753;-65
2022/07/22 03:39:09;;;;;;;16.53;10.63;;;;;;;;;;7667341;23;20691;-61
2022/07/22 03:42:12;;;;;;;20.17;10.83;;;;;;;;;;7667490;23;20540;-61
2022/07/22 03:45:13;;;;;;;15.27;10.30;;;;;;;;;;7666916;23;20410;-61
2022/07/22 03:48:13;;;;;;;18.57;11.10;;;;;;;;;;7668841;23;20092;-62
2022/07/22 03:51:14;;;;;;;21.27;11.27;;;;;;;;;;7666993;23;20562;-61
2022/07/22 03:54:14;;;;;;;17.47;11.77;;;;;;;;;;7666367;23;20176;-62
2022/07/22 03:57:15;;;;;;;17.77;10.77;;;;;;;;;;7665445;23;20052;-61
2022/07/22 04:00:16;;;;;;;19.47;11.00;;;;;;;;;;7663076;23;20124;-63
2022/07/22 04:03:17;;;;;;;20.73;11.80;;;;;;;;;;7664618;23;20049;-61
2022/07/22 04:06:17;;;;;;;17.33;11.60;;;;;;;;;;7668149;23;20092;-70
2022/07/22 04:09:18;;;;;;;17.92;11.25;;;;;;;;;;7667504;23;20067;-61
2022/07/22 04:12:19;;;;;;;17.17;11.60;;;;;;;;;;7667567;23;20100;-61
2022/07/22 04:15:20;;;;;;;15.23;10.83;;;;;;;;;;7665597;23;20028;-64
2022/07/22 04:18:20;;;;;;;18.10;11.60;;;;;;;;;;7666930;23;20619;-62
2022/07/22 04:21:21;;;;;;;22.37;11.40;;;;;;;;;;7668268;23;20421;-66
2022/07/22 04:24:21;;;;;;;18.53;11.27;;;;;;;;;;7667510;23;20092;-62
2022/07/22 04:27:23;;;;;;;16.77;11.07;;;;;;;;;;7664268;23;20096;-61
2022/07/22 04:30:24;;;;;;;16.30;11.30;;;;;;;;;;7666491;23;20024;-62
2022/07/22 04:33:24;;;;;;;19.50;12.13;;;;;;;;;;7666389;23;20104;-62
2022/07/22 04:36:25;;;;;;;17.73;11.10;;;;;;;;;;7665493;23;20826;-62
2022/07/22 04:39:26;;;;;;;19.40;11.53;;;;;;;;;;7663643;23;20755;-62
2022/07/22 04:42:26;;;;;;;19.27;11.50;;;;;;;;;;7668944;23;20139;-61
2022/07/22 04:45:27;;;;;;;18.87;11.60;;;;;;;;;;7667175;23;20025;-63
2022/07/22 04:48:27;;;;;;;17.10;12.10;;;;;;;;;;7666000;23;20091;-72
2022/07/22 04:51:28;;;;;;;16.40;11.63;;;;;;;;;;7666351;23;20412;-62
2022/07/22 04:54:28;;;;;;;19.63;11.63;;;;;;;;;;7667293;23;20096;-62
2022/07/22 04:57:29;;;;;;;16.43;11.13;;;;;;;;;;7665559;23;20059;-63
2022/07/22 05:00:31;;;;;;;18.77;11.23;;;;;;;;;;7668186;23;20017;-62
2022/07/22 05:03:31;;;;;;;;;;;;;;;;;;7668809;23;20052;-63
2022/07/22 05:06:32;;;;;;;17.70;11.27;;;;;;;;;;7666981;23;20008;-63
2022/07/22 05:09:32;;;;;;;18.83;11.30;;;;;;;;;;7665605;23;20079;-63
2022/07/22 05:12:33;;;;;;;21.70;12.40;;;;;;;;;;7667934;23;20028;-63
2022/07/22 05:15:34;;;;;;;17.70;11.68;;;;;;;;;;7671068;23;20452;-67
2022/07/22 05:18:34;;;;;;;17.07;11.73;;;;;;;;;;7668901;23;20028;-63
2022/07/22 05:21:36;;;;;;;19.88;12.05;;;;;;;;;;7668100;23;20037;-62
2022/07/22 05:24:36;;;;;;;19.07;11.17;;;;;;;;;;7669671;23;20638;-63
2022/07/22 05:27:37;;;;;;;21.30;12.53;;;;;;;;;;7664296;23;20024;-63
2022/07/22 05:30:38;;;;;;;19.50;12.20;;;;;;;;;;7664510;23;20128;-62
2022/07/22 05:33:39;;;;;;;;;;;;;;;;;;7668874;23;20048;-62
2022/07/22 05:36:39;;;;;;;18.83;11.27;;;;;;;;;;7666288;23;19998;-67
2022/07/22 05:39:40;;;;;;;19.63;11.50;;;;;;;;;;7667943;23;20025;-62
2022/07/22 05:42:40;;;;;;;16.73;11.20;;;;;;;;;;7669929;23;20037;-65
2022/07/22 05:45:42;;;;;;;18.27;11.50;;;;;;;;;;7682848;23;20511;-62
2022/07/22 05:48:43;;;;;;;17.77;11.63;;;;;;;;;;7669130;23;20032;-64
2022/07/22 05:51:44;;;;;;;18.00;11.90;;;;;;;;;;7669316;23;20013;-62
2022/07/22 05:54:44;;;;;;;18.40;11.87;;;;;;;;;;7670060;23;20183;-65
2022/07/22 05:57:45;;;;;;;22.60;11.97;;;;;;;;;;7669056;23;20017;-62
2022/07/22 06:00:45;;;;;;;19.17;11.87;;;;;;;;;;7671840;23;20092;-63
2022/07/22 06:03:46;;;;;;;19.30;11.33;;;;;;;;;;7672342;23;20017;-64
2022/07/22 06:06:46;;;;;;;18.00;11.57;;;;;;;;;;7672031;23;20044;-62
2022/07/22 06:09:47;;;;;;;18.87;12.17;;;;;;;;;;7668910;23;20036;-62
2022/07/22 06:12:48;;;;;;;20.93;12.27;;;;;;;;;;7667970;23;20120;-62
2022/07/22 06:15:48;;;;;;;19.87;11.80;;;;;;;;;;7669968;23;20445;-62
2022/07/22 06:18:49;;;;;;;17.80;11.87;;;;;;;;;;7668667;23;20165;-61
2022/07/22 06:21:50;;;;;;;22.60;13.00;;;;;;;;;;7666755;23;20469;-63
2022/07/22 06:24:51;;;;;;;19.08;12.65;;;;;;;;;;7665884;23;21077;-62
2022/07/22 06:27:52;;;;;;;20.67;13.48;;;;;;;;;;7666165;23;20039;-64
2022/07/22 06:30:52;;;;;;;18.97;13.00;;;;;;;;;;7667510;23;20021;-62
2022/07/22 06:33:53;;;;;;;19.23;12.50;;;;;;;;;;7643789;23;20100;-63
2022/07/22 06:36:53;;;;;;;19.10;13.03;;;;;;;;;;7671320;23;20436;-67
2022/07/22 06:39:54;;;;;;;18.93;13.23;;;;;;;;;;7672526;23;20150;-67
2022/07/22 06:42:55;;;;;;;20.47;12.90;;;;;;;;;;7674729;23;20037;-61
2022/07/22 06:45:56;;;;;;;22.10;13.70;;;;;;;;;;7674332;23;20025;-63
2022/07/22 06:48:57;;;;;;;22.50;13.65;;;;;;;;;;7673259;23;20391;-64
2022/07/22 06:51:58;;;;;;;22.17;14.32;;;;;;;;;;7672729;23;20048;-64
2022/07/22 06:54:58;;;;;;;20.73;13.47;;;;;;;;;;7672448;23;20092;-61
2022/07/22 06:57:59;;;;;;;18.47;14.03;;;;;;;;;;7672291;23;20535;-61
2022/07/22 07:01:00;;;;;;;23.13;15.05;;;;;;;;;;7671830;23;20088;-62
2022/07/22 07:04:01;;;;;;;27.83;14.27;;;;;;;;;;7673733;23;20324;-62
2022/07/22 07:07:02;;;;;;;;;;;;;;;;;;7674177;23;20024;-60
2022/07/22 07:10:03;;;;;;;19.20;13.00;;;;;;;;;;7671322;23;20379;-63
2022/07/22 07:13:04;;;;;;;23.35;13.80;;;;;;;;;;7671735;23;20024;-60
2022/07/22 07:16:05;;;;;;;17.27;13.03;;;;;;;;;;7673375;23;20423;-61
2022/07/22 07:19:05;;;;;;;37.33;18.90;;;;;;;;;;7672028;23;20096;-63
2022/07/22 07:22:06;;;;;;;20.20;13.87;;;;;;;;;;7672969;23;20081;-64
2022/07/22 07:25:08;;;;;;;27.23;14.80;;;;;;;;;;7673365;23;20333;-63
2022/07/22 07:28:09;;;;;;;20.95;14.93;;;;;;;;;;7672587;23;20091;-64
2022/07/22 07:31:09;;;;;;;19.00;13.70;;;;;;;;;;7671270;23;20100;-63
2022/07/22 07:34:10;;;;;;;22.70;13.60;;;;;;;;;;7672173;23;20068;-66
2022/07/22 07:37:10;;;;;;;20.57;13.37;;;;;;;;;;7678082;23;20271;-64
2022/07/22 07:40:11;;;;;;;20.03;13.37;;;;;;;;;;7672382;23;20017;-64
2022/07/22 07:43:12;;;;;;;23.03;13.77;;;;;;;;;;7673642;23;20063;-64
2022/07/22 07:46:12;;;;;;;21.70;13.48;;;;;;;;;;7670606;23;20027;-62
2022/07/22 07:49:13;;;;;;;20.63;14.00;;;;;;;;;;7671966;23;20092;-63
2022/07/22 07:52:16;;;;;;;20.08;13.50;;;;;;;;;;7671591;23;20028;-68
2022/07/22 07:55:16;;;;;;;20.05;12.70;;;;;;;;;;7673013;23;20091;-65
2022/07/22 07:58:17;;;;;;;24.27;13.23;;;;;;;;;;7671003;23;20021;-63
2022/07/22 08:01:18;;;;;;;16.67;12.50;;;;;;;;;;7672108;23;20277;-66
2022/07/22 08:04:18;;;;;;;21.70;12.90;;;;;;;;;;7669958;23;20017;-63
2022/07/22 08:07:19;;;;;;;19.53;13.53;;;;;;;;;;7671207;23;20111;-65
2022/07/22 08:10:20;;;;;;;;;;;;;;;;;;7670944;23;20044;-64
2022/07/22 08:13:21;;;;;;;16.13;12.17;;;;;;;;;;7671522;23;20352;-65
2022/07/22 08:16:22;;;;;;;20.13;13.10;;;;;;;;;;7671392;23;20087;-62
2022/07/22 08:19:22;;;;;;;17.80;12.23;;;;;;;;;;7669078;23;20067;-58
2022/07/22 08:22:23;;;;;;;20.13;12.90;;;;;;;;;;7669672;23;20023;-60
2022/07/22 08:25:24;;;;;;;16.50;12.93;;;;;;;;;;7667959;23;20096;-61
2022/07/22 08:28:25;;;;;;;20.02;13.15;;;;;;;;;;7670993;23;20021;-60
2022/07/22 08:31:27;;;;;;;19.08;13.23;;;;;;;;;;7670025;23;20083;-60
2022/07/22 08:34:28;;;;;;;21.45;13.30;;;;;;;;;;7668317;23;20041;-59
2022/07/22 08:37:28;;;;;;;21.53;13.63;;;;;;;;;;7668829;23;20012;-59
2022/07/22 08:40:29;;;;;;;17.90;12.70;;;;;;;;;;7669808;23;20405;-59
2022/07/22 08:43:33;;;;;;;19.00;13.00;;;;;;;;;;7670458;23;20330;-60
2022/07/22 08:46:35;;;;;;;18.40;13.27;;;;;;;;;;7669409;23;20037;-59
2022/07/22 08:49:36;;;;;;;;;;;;;;;;;;7670161;23;20031;-59
2022/07/22 08:52:37;;;;;;;17.93;12.97;;;;;;;;;;7669612;23;19920;-59
2022/07/22 08:55:46;;;;;;;21.63;13.68;;;;;;;;;;7668108;23;20017;-61
2022/07/22 08:58:47;;;;;;;19.35;13.63;;;;;;;;;;7668526;23;20056;-61
2022/07/22 09:02:08;;;;;;;18.63;13.20;;;;;;;;;;7652729;23;20017;-60
2022/07/22 09:05:13;;;;;;;19.33;13.05;;;;;;;;;;7662634;23;20041;-60
2022/07/22 09:08:14;;;;;;;20.98;14.00;;;;;;;;;;7662972;23;20025;-60
2022/07/22 09:11:16;;;;;;;22.42;12.90;;;;;;;;;;7657888;23;20025;-62
2022/07/22 09:14:17;;;;;;;18.42;12.93;;;;;;;;;;7659984;23;20100;-64
2022/07/22 09:17:34;;;;;;;17.83;13.23;;;;;;;;;;7659485;23;20441;-61
2022/07/22 09:20:36;;;;;;;17.98;13.45;;;;;;;;;;7658446;23;20045;-61
2022/07/22 09:23:41;;;;;;;21.20;13.65;;;;;;;;;;7669392;23;20511;-60
2022/07/22 09:26:42;;;;;;;21.23;13.50;;;;;;;;;;7677525;23;20097;-60
2022/07/22 09:29:49;;;;;;;17.42;12.73;;;;;;;;;;7641423;23;20105;-60
2022/07/22 09:32:52;;;;;;;22.20;13.10;;;;;;;;;;7666453;23;20037;-60
2022/07/22 09:36:02;;;;;;;25.30;15.25;;;;;;;;;;7665828;23;20049;-60
2022/07/22 09:39:26;;;;;;;18.70;14.00;;;;;;;;;;7666396;23;20028;-60
2022/07/22 09:42:42;;;;;;;18.00;12.85;;;;;;;;;;7665161;23;20396;-60
2022/07/22 09:45:46;;;;;;;20.80;13.18;;;;;;;;;;7664053;23;20532;-60
2022/07/22 09:48:47;;;;;;;18.58;13.50;;;;;;;;;;7666915;23;20037;-60
2022/07/22 09:51:48;;;;;;;20.77;13.27;;;;;;;;;;7661887;23;20427;-60
2022/07/22 09:54:48;;;;;;;19.55;13.55;;;;;;;;;;7663183;23;20021;-60
2022/07/22 09:57:51;;;;;;;17.83;13.43;;;;;;;;;;7662164;23;20100;-60
2022/07/22 10:00:53;;;;;;;19.27;13.18;;;;;;;;;;7666513;23;20048;-60
2022/07/22 10:03:55;;;;;;;22.20;12.90;;;;;;;;;;7666509;23;20428;-60
2022/07/22 10:06:56;;;;;;;17.83;12.98;;;;;;;;;;7667848;23;20125;-60
2022/07/22 10:09:58;;;;;;;17.25;13.00;;;;;;;;;;7666288;23;20036;-60
2022/07/22 10:13:01;;;;;;;17.52;12.45;;;;;;;;;;7665426;23;20100;-60
2022/07/22 10:16:02;;;;;;;17.23;12.57;;;;;;;;;;7664705;23;20070;-61
2022/07/22 10:19:03;;;;;;;23.35;13.45;;;;;;;;;;7666263;23;20104;-60
2022/07/22 10:22:03;;;;;;;21.63;12.85;;;;;;;;;;7665179;23;20021;-60
2022/07/22 10:25:06;;;;;;;17.42;12.60;;;;;;;;;;7662793;23;20482;-60
2022/07/22 10:28:20;;;;;;;19.27;12.82;;;;;;;;;;7662444;23;20448;-60
2022/07/22 10:31:23;;;;;;;18.65;13.07;;;;;;;;;;7666595;23;20107;-60
2022/07/22 10:34:23;;;;;;;21.52;13.05;;;;;;;;;;7668643;23;20057;-60
2022/07/22 10:37:33;;;;;;;17.70;12.80;;;;;;;;;;7668845;23;20021;-60
2022/07/22 10:40:53;;;;;;;18.80;12.68;;;;;;;;;;7667087;23;20025;-60
2022/07/22 10:43:53;;;;;;;18.17;12.88;;;;;;;;;;7669823;23;20124;-60
2022/07/22 10:46:58;;;;;;;17.20;12.90;;;;;;;;;;7670538;23;20013;-60
2022/07/22 10:50:40;;;;;;;15.60;12.90;;;;;;;;;;7668720;23;20364;-60
2022/07/22 10:53:40;;;;;;;;;;;;;;;;;;7667653;23;20021;-59
2022/07/22 10:56:41;;;;;;;16.00;12.60;;;;;;;;;;7668495;23;20284;-60
2022/07/22 10:59:53;;;;;;;15.95;12.55;;;;;;;;;;7666156;23;20341;-60
2022/07/22 11:02:54;;;;;;;23.30;12.40;;;;;;;;;;7666093;23;20164;-60
2022/07/22 11:05:56;;;;;;;18.80;12.47;;;;;;;;;;7668309;23;20025;-60
2022/07/22 11:09:03;;;;;;;15.48;12.10;;;;;;;;;;7669295;23;20271;-60
2022/07/22 11:12:12;;;;;;;21.67;12.23;;;;;;;;;;7668498;23;20344;-60
2022/07/22 11:15:13;;;;;;;18.83;11.80;;;;;;;;;;7667291;23;20100;-59
2022/07/22 11:18:15;;;;;;;13.30;11.40;;;;;;;;;;7668753;23;20055;-60
2022/07/22 11:21:17;;;;;;;14.68;11.32;;;;;;;;;;7666438;23;20105;-60
2022/07/22 11:24:19;;;;;;;15.85;11.88;;;;;;;;;;7677044;23;20021;-60
2022/07/22 11:27:24;;;;;;;12.27;10.43;;;;;;;;;;7666820;23;20099;-60
2022/07/22 11:30:24;;;;;;;13.43;10.85;;;;;;;;;;7669298;23;20017;-61
2022/07/22 11:33:25;;;;;;;14.27;10.95;;;;;;;;;;7664483;23;20039;-60
2022/07/22 11:36:32;;;;;;;14.77;10.67;;;;;;;;;;7668816;23;20453;-60
2022/07/22 11:39:33;;;;;;;12.77;10.15;;;;;;;;;;7667162;23;20354;-60
2022/07/22 11:42:34;;;;;;;13.13;10.35;;;;;;;;;;7667690;23;20079;-60
2022/07/22 11:45:34;;;;;;;11.40;9.55;;;;;;;;;;7666085;23;20021;-60
2022/07/22 11:48:35;;;;;;;14.23;9.77;;;;;;;;;;7667745;23;20096;-59
2022/07/22 11:51:38;;;;;;;13.40;9.20;;;;;;;;;;7666589;23;20079;-59
2022/07/22 11:54:42;;;;;;;11.35;9.18;;;;;;;;;;7664535;23;20029;-60
2022/07/22 11:57:47;;;;;;;13.60;9.77;;;;;;;;;;7668315;23;20104;-60
2022/07/22 12:00:48;;;;;;;11.70;10.27;;;;;;;;;;7668283;23;20724;-60
2022/07/22 12:03:50;;;;;;;;;;;;;;;;;;7665432;23;20096;-60
2022/07/22 12:06:51;;;;;;;;;;;;;;;;;;7668808;23;19916;-60
2022/07/22 12:09:51;;;;;;;12.27;9.70;;;;;;;;;;7666923;23;19923;-59
2022/07/22 12:12:52;;;;;;;11.82;9.95;;;;;;;;;;7666786;23;20017;-61
2022/07/22 12:15:53;;;;;;;14.60;10.38;;;;;;;;;;7665376;23;20021;-60
2022/07/22 12:18:56;;;;;;;16.13;10.45;;;;;;;;;;7666504;23;20424;-60
2022/07/22 12:21:57;;;;;;;12.35;10.32;;;;;;;;;;7667499;23;20088;-60
2022/07/22 12:25:01;;;;;;;12.70;10.70;;;;;;;;;;7666089;23;20059;-60
2022/07/22 12:28:01;;;;;;;12.85;9.95;;;;;;;;;;7667910;23;20255;-60
2022/07/22 12:31:02;;;;;;;;;;;;;;;;;;7667489;23;20048;-60
2022/07/22 12:34:03;;;;;;;13.23;10.30;;;;;;;;;;7667779;23;20830;-60
2022/07/22 12:37:18;;;;;;;;;;;;;;;;;;7668975;23;20417;-60
2022/07/22 12:40:22;;;;;;;16.70;10.70;;;;;;;;;;7664014;23;20534;-60
2022/07/22 12:43:26;;;;;;;13.80;10.90;;;;;;;;;;7666757;23;21095;-60
2022/07/22 12:46:27;;;;;;;14.07;10.52;;;;;;;;;;7666820;23;20097;-60
2022/07/22 12:49:28;;;;;;;;;;;;;;;;;;7667230;23;20024;-60
2022/07/22 12:52:28;;;;;;;12.53;10.53;;;;;;;;;;7666694;23;20225;-61
2022/07/22 12:55:29;;;;;;;13.02;10.55;;;;;;;;;;7664255;23;20088;-60
2022/07/22 12:58:31;;;;;;;;;;;;;;;;;;7664882;23;20036;-60
2022/07/22 13:01:32;;;;;;;15.02;11.00;;;;;;;;;;7662824;23;19920;-60
2022/07/22 13:04:32;;;;;;;;;;;;;;;;;;7663370;23;20044;-61
2022/07/22 13:07:33;;;;;;;13.10;10.17;;;;;;;;;;7667275;23;19926;-60
2022/07/22 13:10:33;;;;;;;;;;;;;;;;;;7662109;23;20779;-60
2022/07/22 13:13:34;;;;;;;13.13;10.93;;;;;;;;;;7652384;23;20530;-61
2022/07/22 13:16:35;;;;;;;;;;;;;;;;;;7656000;23;20017;-60
2022/07/22 13:19:35;;;;;;;14.97;11.37;;;;;;;;;;7659146;23;19920;-60
2022/07/22 13:22:36;;;;;;;;;;;;;;;;;;7659191;23;20020;-60
2022/07/22 13:25:36;;;;;;;17.47;11.80;;;;;;;;;;7633634;23;19927;-60
2022/07/22 13:28:37;;;;;;;;;;;;;;;;;;7661452;23;20445;-60
2022/07/22 13:31:38;;;;;;;14.37;11.30;;;;;;;;;;7659954;23;19920;-60
2022/07/22 13:34:38;;;;;;;;;;;;;;;;;;7659064;23;20028;-60
2022/07/22 13:37:39;;;;;;;16.23;12.20;;;;;;;;;;7660041;23;20024;-61
2022/07/22 13:40:40;;;;;;;;;;;;;;;;;;7661333;23;20021;-61
2022/07/22 13:43:40;;;;;;;14.83;11.07;;;;;;;;;;7661222;23;19916;-60
2022/07/22 13:46:41;;;;;;;;;;;;;;;;;;7662029;23;20442;-60
2022/07/22 13:49:42;;;;;;;16.40;11.93;;;;;;;;;;7661594;23;20336;-61
2022/07/22 13:52:46;;;;;;;16.02;12.25;;;;;;;;;;7660371;23;20025;-61
2022/07/22 13:55:46;;;;;;;13.07;11.30;;;;;;;;;;7659684;23;20312;-61
2022/07/22 13:58:47;;;;;;;;;;;;;;;;;;7661717;23;20025;-62
2022/07/22 14:01:48;;;;;;;15.00;11.70;;;;;;;;;;7659736;23;19920;-60
2022/07/22 14:04:48;;;;;;;14.00;11.43;;;;;;;;;;7658820;23;20416;-60
2022/07/22 14:07:49;;;;;;;;;;;;;;;;;;7660022;23;20025;-60
2022/07/22 14:10:50;;;;;;;15.43;12.07;;;;;;;;;;7661114;23;20028;-60
2022/07/22 14:13:50;;;;;;;;;;;;;;;;;;7663577;23;20021;-62
2022/07/22 14:16:51;;;;;;;16.00;12.30;;;;;;;;;;7663414;23;19920;-62
2022/07/22 14:19:51;;;;;;;;;;;;;;;;;;7664709;23;20017;-61
2022/07/22 14:22:52;;;;;;;16.03;12.20;;;;;;;;;;7660274;23;19920;-61
2022/07/22 14:25:52;;;;;;;;;;;;;;;;;;7663246;23;20027;-61
2022/07/22 14:28:53;;;;;;;17.00;12.23;;;;;;;;;;7663222;23;19924;-61
2022/07/22 14:31:53;;;;;;;;;;;;;;;;;;7661995;23;20054;-60
2022/07/22 14:34:54;;;;;;;17.80;12.30;;;;;;;;;;7661624;23;20318;-60
2022/07/22 14:37:54;;;;;;;;;;;;;;;;;;7661193;23;20021;-60
2022/07/22 14:40:55;;;;;;;13.43;12.03;;;;;;;;;;7660524;23;19920;-60
2022/07/22 14:43:56;;;;;;;;;;;;;;;;;;7661357;23;20021;-60
2022/07/22 14:46:56;;;;;;;14.67;11.80;;;;;;;;;;7661567;23;19920;-60
2022/07/22 14:49:57;;;;;;;;;;;;;;;;;;7663102;23;20049;-60
2022/07/22 14:52:57;;;;;;;13.47;11.33;;;;;;;;;;7658996;23;20341;-60
2022/07/22 14:55:58;;;;;;;;;;;;;;;;;;7661703;23;20051;-60
2022/07/22 14:58:59;;;;;;;12.57;10.50;;;;;;;;;;7659506;23;19920;-61
2022/07/22 15:01:59;;;;;;;;;;;;;;;;;;7658028;23;20020;-60
2022/07/22 15:05:00;;;;;;;11.50;10.27;;;;;;;;;;7659599;23;20498;-60
2022/07/22 15:08:00;;;;;;;;;;;;;;;;;;7659188;23;20251;-61
2022/07/22 15:11:01;;;;;;;12.03;10.67;;;;;;;;;;7658011;23;20350;-61
2022/07/22 15:14:01;;;;;;;;;;;;;;;;;;7661737;23;20021;-61
2022/07/22 15:17:02;;;;;;;13.50;10.60;;;;;;;;;;7660395;23;19920;-60
2022/07/22 15:20:04;;;;;;;13.57;10.70;;;;;;;;;;7660882;23;20027;-61
2022/07/22 15:23:05;;;;;;;12.82;10.20;;;;;;;;;;7659455;23;20051;-61
2022/07/22 15:26:06;;;;;;;12.30;9.60;;;;;;;;;;7660169;23;20017;-61
2022/07/22 15:29:06;;;;;;;11.82;9.70;;;;;;;;;;7662117;23;20024;-62
2022/07/22 15:32:07;;;;;;;15.57;10.10;;;;;;;;;;7658763;23;20027;-61
2022/07/22 15:35:08;;;;;;;12.10;10.00;;;;;;;;;;7661250;23;20028;-62
2022/07/22 15:38:08;;;;;;;12.00;9.77;;;;;;;;;;7661610;23;20323;-61
2022/07/22 15:41:11;;;;;;;16.02;10.25;;;;;;;;;;7660169;23;20074;-61
2022/07/22 15:44:11;;;;;;;10.77;9.52;;;;;;;;;;7663894;23;20063;-60
2022/07/22 15:47:12;;;;;;;14.13;9.50;;;;;;;;;;7663307;23;20021;-61
2022/07/22 15:50:12;;;;;;;11.82;9.23;;;;;;;;;;7663342;23;20112;-64
2022/07/22 15:53:13;;;;;;;12.70;9.70;;;;;;;;;;7660401;23;20310;-61
2022/07/22 15:56:14;;;;;;;13.45;9.60;;;;;;;;;;7660687;23;20021;-61
2022/07/22 15:59:32;;;;;;;11.48;9.60;;;;;;;;;;7661405;23;20021;-60
2022/07/22 16:02:33;;;;;;;12.52;9.75;;;;;;;;;;7659025;23;20017;-62
2022/07/22 16:05:34;;;;;;;12.10;9.25;;;;;;;;;;7661132;23;20043;-63
2022/07/22 16:08:34;;;;;;;11.23;9.95;;;;;;;;;;7662233;23;20024;-61
2022/07/22 16:11:35;;;;;;;11.57;9.77;;;;;;;;;;7660401;23;20061;-64
2022/07/22 16:14:35;;;;;;;12.73;9.93;;;;;;;;;;7661925;23;20021;-67
2022/07/22 16:17:38;;;;;;;13.07;9.77;;;;;;;;;;7658959;23;20609;-65
2022/07/22 16:20:42;;;;;;;12.10;9.48;;;;;;;;;;7659915;23;20021;-68
2022/07/22 16:23:43;;;;;;;14.10;10.05;;;;;;;;;;7661043;23;20096;-59
2022/07/22 16:26:43;;;;;;;14.18;10.07;;;;;;;;;;7659160;23;20017;-58
2022/07/22 16:29:44;;;;;;;13.93;10.68;;;;;;;;;;7661419;23;20017;-58
2022/07/22 16:32:44;;;;;;;12.63;9.73;;;;;;;;;;7661396;23;20534;-60
2022/07/22 16:35:45;;;;;;;14.70;9.45;;;;;;;;;;7661188;23;20400;-60
2022/07/22 16:38:45;;;;;;;11.80;9.90;;;;;;;;;;7661548;23;20023;-60
2022/07/22 16:41:46;;;;;;;15.32;10.45;;;;;;;;;;7658668;23;20021;-61
2022/07/22 16:44:47;;;;;;;13.32;10.13;;;;;;;;;;7661433;23;20025;-61
2022/07/22 16:47:47;;;;;;;12.27;9.68;;;;;;;;;;7660647;23;20021;-60
2022/07/22 16:50:48;;;;;;;12.35;9.93;;;;;;;;;;7659139;23;20024;-60
2022/07/22 16:53:49;;;;;;;11.07;9.98;;;;;;;;;;7659670;23;20020;-61
2022/07/22 16:56:50;;;;;;;16.40;10.40;;;;;;;;;;7660806;23;20484;-60
2022/07/22 16:59:50;;;;;;;14.18;10.18;;;;;;;;;;7663275;23;20053;-60
2022/07/22 17:02:51;;;;;;;13.45;10.32;;;;;;;;;;7658389;23;20051;-60
2022/07/22 17:05:52;;;;;;;14.40;10.25;;;;;;;;;;7656814;23;20021;-61
2022/07/22 17:08:52;;;;;;;15.65;10.60;;;;;;;;;;7661751;23;20023;-59
2022/07/22 17:11:53;;;;;;;16.60;10.45;;;;;;;;;;7659194;23;20021;-61
2022/07/22 17:14:53;;;;;;;15.85;10.30;;;;;;;;;;7661817;23;20020;-61
2022/07/22 17:17:54;;;;;;;15.30;11.00;;;;;;;;;;7660643;23;20508;-60
2022/07/22 17:20:55;;;;;;;15.15;10.60;;;;;;;;;;7659579;23;20771;-60
2022/07/22 17:23:55;;;;;;;13.63;10.38;;;;;;;;;;7661926;23;20020;-61
2022/07/22 17:26:56;;;;;;;13.18;10.30;;;;;;;;;;7659601;23;20534;-61
2022/07/22 17:29:57;;;;;;;12.93;9.82;;;;;;;;;;7661345;23;20099;-60
2022/07/22 17:32:57;;;;;;;16.08;10.23;;;;;;;;;;7657982;23;20100;-60
2022/07/22 17:35:58;;;;;;;16.50;10.48;;;;;;;;;;7660384;23;20120;-60
2022/07/22 17:38:59;;;;;;;13.18;10.50;;;;;;;;;;7661409;23;20075;-60
2022/07/22 17:42:01;;;;;;;13.00;10.43;;;;;;;;;;7660586;23;20162;-60
2022/07/22 17:45:02;;;;;;;13.23;10.70;;;;;;;;;;7665129;23;20071;-60
2022/07/22 17:48:03;;;;;;;12.65;11.02;;;;;;;;;;7662849;23;21135;-60
2022/07/22 17:51:04;;;;;;;14.18;11.05;;;;;;;;;;7658985;23;20051;-60
2022/07/22 17:54:05;;;;;;;13.90;10.70;;;;;;;;;;7664233;23;20028;-60
2022/07/22 17:57:05;;;;;;;;;;;;;;;;;;7661784;23;20025;-62